Time;durP1;ratioP1;P1;durP2;ratioP2;P2;SDS_P1;SDS_P2;PMS_P1;PMS_P2;Temp;Humidity;BMP_temperature;BMP_pressure;BME280_temperature;BME280_humidity;BME280_pressure;Samples;Min_cycle;Max_cycle;Signal;HPM_P1;HPM_P2
2020/12/30 00:01:42;;;;;;;8.50;5.70;;;2.20;99.90;;;;;;5018958;28;20208;-82
2020/12/30 00:04:09;;;;;;;9.07;6.53;;;2.20;99.90;;;;;;5019172;28;20292;-81
2020/12/30 00:06:36;;;;;;;8.48;6.35;;;2.20;99.90;;;;;;5018388;28;20629;-81
2020/12/30 00:09:02;;;;;;;7.38;6.63;;;2.30;99.90;;;;;;5018528;28;20204;-81
2020/12/30 00:11:29;;;;;;;13.18;8.75;;;2.30;99.90;;;;;;5018466;28;20311;-81
2020/12/30 00:13:56;;;;;;;8.35;6.65;;;2.30;99.90;;;;;;5018074;28;20248;-81
2020/12/30 00:16:22;;;;;;;7.53;6.20;;;2.20;99.90;;;;;;5019050;28;20224;-81
2020/12/30 00:18:48;;;;;;;6.85;5.70;;;2.10;99.90;;;;;;5018653;28;20214;-81
2020/12/30 00:21:15;;;;;;;6.32;5.72;;;2.10;99.90;;;;;;5019759;28;20200;-81
2020/12/30 00:23:41;;;;;;;6.10;5.60;;;2.00;99.90;;;;;;5019984;28;20191;-81
2020/12/30 00:26:08;;;;;;;6.75;5.50;;;2.00;99.90;;;;;;5019114;28;20252;-81
2020/12/30 00:28:35;;;;;;;6.75;6.15;;;1.90;99.90;;;;;;5021263;28;20215;-81
2020/12/30 00:31:01;;;;;;;6.88;6.28;;;2.00;99.90;;;;;;5020738;28;20212;-82
2020/12/30 00:33:29;;;;;;;10.20;6.13;;;2.00;99.90;;;;;;5020089;28;20696;-82
2020/12/30 00:35:55;;;;;;;8.93;6.07;;;2.00;99.90;;;;;;5019752;28;20251;-81
2020/12/30 00:38:21;;;;;;;6.82;5.93;;;1.90;99.90;;;;;;5019816;28;20295;-81
2020/12/30 00:40:47;;;;;;;8.10;5.90;;;1.90;99.90;;;;;;5020078;28;20204;-81
2020/12/30 00:43:14;;;;;;;7.03;6.32;;;1.90;99.90;;;;;;5019694;28;20206;-81
2020/12/30 00:45:41;;;;;;;6.90;6.20;;;1.80;99.90;;;;;;5020289;28;20311;-81
2020/12/30 00:48:07;;;;;;;6.28;5.72;;;2.00;99.90;;;;;;5019220;28;20211;-82
2020/12/30 00:50:33;;;;;;;7.82;7.03;;;2.00;99.90;;;;;;5020218;28;20552;-82
2020/12/30 00:53:00;;;;;;;7.38;5.70;;;1.90;99.90;;;;;;5019351;28;20230;-82
2020/12/30 00:55:26;;;;;;;6.45;5.72;;;1.90;99.90;;;;;;5018110;28;20457;-82
2020/12/30 00:57:52;;;;;;;6.10;5.50;;;1.90;99.90;;;;;;5018209;28;20208;-81
2020/12/30 01:00:19;;;;;;;6.88;6.03;;;1.80;99.90;;;;;;5019015;28;20287;-81
2020/12/30 01:02:46;;;;;;;7.35;5.72;;;1.80;99.90;;;;;;5018442;28;20351;-81
2020/12/30 01:05:13;;;;;;;7.00;6.05;;;1.80;99.90;;;;;;5018355;28;20224;-83
2020/12/30 01:07:39;;;;;;;7.22;6.22;;;1.90;99.90;;;;;;5016555;28;20208;-83
2020/12/30 01:10:06;;;;;;;6.63;5.60;;;1.90;99.90;;;;;;5018234;28;20579;-82
2020/12/30 01:12:32;;;;;;;9.45;6.55;;;1.90;99.90;;;;;;5018573;28;20224;-81
2020/12/30 01:14:58;;;;;;;7.50;5.75;;;2.00;99.90;;;;;;5018202;28;20315;-81
2020/12/30 01:17:26;;;;;;;7.97;6.22;;;1.90;99.90;;;;;;5017933;28;20201;-81
2020/12/30 01:19:53;;;;;;;6.60;5.90;;;1.90;99.90;;;;;;5017691;28;20689;-82
2020/12/30 01:22:19;;;;;;;7.95;6.70;;;2.00;99.90;;;;;;5018395;28;20272;-82
2020/12/30 01:24:46;;;;;;;8.15;6.65;;;2.00;99.90;;;;;;5020043;28;20232;-81
2020/12/30 01:27:12;;;;;;;9.50;6.30;;;1.90;99.90;;;;;;5019517;28;20191;-82
2020/12/30 01:29:38;;;;;;;7.65;6.25;;;1.90;99.90;;;;;;5018616;28;20208;-81
2020/12/30 01:32:05;;;;;;;7.28;6.25;;;1.90;99.90;;;;;;5017253;28;20688;-81
2020/12/30 01:34:31;;;;;;;8.13;6.82;;;1.90;99.90;;;;;;5019212;28;20228;-81
2020/12/30 01:36:58;;;;;;;7.07;6.38;;;1.80;99.90;;;;;;5019546;28;20223;-82
2020/12/30 01:39:24;;;;;;;6.10;5.50;;;1.70;99.90;;;;;;5019418;28;20214;-81
2020/12/30 01:41:51;;;;;;;7.63;6.35;;;1.70;99.90;;;;;;5018187;28;20280;-81
2020/12/30 01:44:17;;;;;;;6.72;6.07;;;1.70;99.90;;;;;;5018167;28;20287;-82
2020/12/30 01:46:45;;;;;;;5.10;4.70;;;1.70;99.90;;;;;;5017589;28;20232;-81
2020/12/30 01:49:14;;;;;;;7.75;6.95;;;1.60;99.90;;;;;;5017119;28;20684;-82
2020/12/30 01:51:41;;;;;;;9.52;6.45;;;1.60;99.90;;;;;;5017815;28;20287;-81
2020/12/30 01:54:11;;;;;;;9.95;7.18;;;1.70;99.90;;;;;;5017626;28;20315;-82
2020/12/30 01:56:37;;;;;;;7.25;6.55;;;1.70;99.90;;;;;;5017561;28;20224;-82
2020/12/30 01:59:06;;;;;;;6.25;5.70;;;1.70;99.90;;;;;;5017580;28;20250;-81
2020/12/30 02:01:36;;;;;;;6.38;5.88;;;1.70;99.90;;;;;;5017413;28;20259;-81
2020/12/30 02:04:04;;;;;;;8.05;6.93;;;1.80;99.90;;;;;;5017337;28;20577;-81
2020/12/30 02:06:31;;;;;;;8.40;6.55;;;1.80;99.90;;;;;;5017878;28;20231;-81
2020/12/30 02:08:58;;;;;;;8.55;5.50;;;1.90;99.90;;;;;;5017899;28;20204;-81
2020/12/30 02:11:27;;;;;;;7.00;6.40;;;1.90;99.90;;;;;;5017876;28;20200;-81
2020/12/30 02:14:01;;;;;;;6.47;5.35;;;2.00;99.90;;;;;;5017113;28;20322;-81
2020/12/30 02:16:28;;;;;;;7.03;6.07;;;1.90;99.90;;;;;;5017472;28;20221;-81
2020/12/30 02:18:54;;;;;;;7.28;6.30;;;2.00;99.90;;;;;;5017037;28;20268;-82
2020/12/30 02:21:20;;;;;;;8.05;7.35;;;2.00;99.90;;;;;;5016790;28;20268;-82
2020/12/30 02:23:49;;;;;;;10.07;7.25;;;2.00;99.90;;;;;;5016844;28;20200;-82
2020/12/30 02:29:09;;;;;;;5.60;5.10;;;2.00;99.90;;;;;;5017130;28;20681;-83
2020/12/30 02:31:42;;;;;;;6.63;5.43;;;2.00;99.90;;;;;;5029842;28;20192;-83
2020/12/30 02:34:13;;;;;;;5.68;5.07;;;2.00;99.90;;;;;;5030157;28;20227;-84
2020/12/30 02:36:41;;;;;;;5.88;5.38;;;2.10;99.90;;;;;;5029832;28;20231;-83
2020/12/30 02:39:20;;;;;;;7.10;6.28;;;2.00;99.90;;;;;;5027400;28;20232;-83
2020/12/30 02:41:57;;;;;;;6.30;5.78;;;2.10;99.90;;;;;;5030094;28;20200;-84
2020/12/30 02:44:39;;;;;;;5.97;5.38;;;2.20;99.90;;;;;;5036434;28;20199;-83
2020/12/30 02:47:18;;;;;;;6.10;5.30;;;2.20;99.90;;;;;;5034618;28;20235;-84
2020/12/30 02:49:57;;;;;;;5.57;5.07;;;2.30;99.90;;;;;;5031348;28;20257;-84
2020/12/30 02:52:29;;;;;;;6.85;6.25;;;2.30;99.90;;;;;;5029456;28;20290;-84
2020/12/30 02:55:14;;;;;;;7.15;6.10;;;2.20;99.90;;;;;;5029236;28;20214;-84
2020/12/30 02:58:07;;;;;;;6.07;5.47;;;2.20;99.90;;;;;;5031093;28;20191;-83
2020/12/30 03:01:00;;;;;;;9.30;6.63;;;2.20;99.90;;;;;;5030698;28;20557;-83
2020/12/30 03:03:28;;;;;;;5.65;5.18;;;2.10;99.90;;;;;;5032032;28;20220;-83
2020/12/30 03:05:55;;;;;;;6.30;5.45;;;2.10;99.90;;;;;;5031947;28;20255;-83
2020/12/30 03:08:21;;;;;;;5.43;4.93;;;2.00;99.90;;;;;;5030588;28;20215;-83
2020/12/30 03:10:47;;;;;;;5.90;5.32;;;1.90;99.90;;;;;;5031894;28;20204;-83
2020/12/30 03:13:15;;;;;;;6.20;5.70;;;1.90;99.90;;;;;;5030945;28;20326;-83
2020/12/30 03:15:44;;;;;;;6.15;5.60;;;1.90;99.90;;;;;;5031035;28;20260;-83
2020/12/30 03:18:13;;;;;;;5.38;4.85;;;1.80;99.90;;;;;;5031309;28;20204;-82
2020/12/30 03:20:40;;;;;;;5.40;4.90;;;1.80;99.90;;;;;;5033487;28;20219;-83
2020/12/30 03:23:06;;;;;;;6.97;5.40;;;1.90;99.90;;;;;;5031063;28;20205;-83
2020/12/30 03:25:32;;;;;;;5.00;4.20;;;1.90;99.90;;;;;;5029685;28;20228;-83
2020/12/30 03:27:59;;;;;;;5.13;4.72;;;1.90;99.90;;;;;;5031405;28;20204;-82
2020/12/30 03:30:27;;;;;;;5.50;4.32;;;1.90;99.90;;;;;;5035122;28;20204;-82
2020/12/30 03:33:04;;;;;;;6.03;5.00;;;1.80;99.90;;;;;;5036197;28;20224;-82
2020/12/30 03:35:33;;;;;;;5.03;4.57;;;1.80;99.90;;;;;;5035805;28;20235;-82
2020/12/30 03:38:00;;;;;;;5.55;5.05;;;1.80;99.90;;;;;;5036187;28;20212;-82
2020/12/30 03:40:26;;;;;;;5.38;4.35;;;1.80;99.90;;;;;;5032432;28;20208;-80
2020/12/30 03:42:53;;;;;;;6.28;4.15;;;1.80;99.90;;;;;;5030697;28;20224;-81
2020/12/30 03:45:26;;;;;;;4.78;4.38;;;1.80;99.90;;;;;;5030178;28;20220;-81
2020/12/30 03:47:55;;;;;;;6.00;4.22;;;1.80;99.90;;;;;;5030242;28;20192;-82
2020/12/30 03:50:21;;;;;;;8.13;5.30;;;1.80;99.90;;;;;;5030010;28;20215;-82
2020/12/30 03:52:50;;;;;;;5.38;4.88;;;1.90;99.90;;;;;;5029525;28;20711;-82
2020/12/30 03:55:17;;;;;;;7.32;5.10;;;1.90;99.90;;;;;;5029144;28;20225;-82
2020/12/30 03:57:43;;;;;;;4.47;3.90;;;1.90;99.90;;;;;;5030329;28;20216;-82
2020/12/30 04:00:26;;;;;;;4.65;4.25;;;1.90;99.90;;;;;;5028523;28;20339;-82
2020/12/30 04:03:03;;;;;;;4.45;3.97;;;1.90;99.90;;;;;;5027426;28;20560;-81
2020/12/30 04:05:43;;;;;;;;;;;;;;;;;;;;;
2020/12/30 04:08:22;;;;;;;4.70;4.28;;;2.00;99.90;;;;;;5027957;28;20264;-82
2020/12/30 04:10:52;;;;;;;6.95;4.43;;;2.10;99.90;;;;;;5027034;28;20200;-83
2020/12/30 04:13:30;;;;;;;5.55;4.30;;;1.90;99.90;;;;;;5026360;28;20224;-83
2020/12/30 04:16:03;;;;;;;5.30;4.78;;;1.80;99.90;;;;;;5026914;28;20278;-82
2020/12/30 04:21:39;;;;;;;5.90;4.40;;;1.80;99.90;;;;;;5026888;28;20192;-83
2020/12/30 04:24:16;;;;;;;4.75;4.22;;;1.90;99.90;;;;;;5027047;28;20189;-83
2020/12/30 04:27:11;;;;;;;5.50;5.00;;;2.00;99.90;;;;;;5025744;28;20743;-83
2020/12/30 04:29:40;;;;;;;5.78;4.43;;;2.00;99.90;;;;;;5027533;28;20204;-83
2020/12/30 04:32:10;;;;;;;4.85;4.38;;;1.90;99.90;;;;;;5027437;28;20242;-83
2020/12/30 04:35:19;;;;;;;4.60;4.20;;;1.90;99.90;;;;;;5033638;28;20246;-83
2020/12/30 04:38:33;;;;;;;5.28;4.55;;;1.80;99.90;;;;;;5031114;28;20273;-84
2020/12/30 04:41:29;;;;;;;4.47;4.05;;;1.80;99.90;;;;;;5030595;28;20205;-83
2020/12/30 04:44:21;;;;;;;5.57;4.40;;;1.80;99.90;;;;;;5031401;28;20205;-83
2020/12/30 04:46:56;;;;;;;6.80;4.45;;;1.80;99.90;;;;;;5030979;28;20224;-83
2020/12/30 04:49:24;;;;;;;5.43;4.53;;;1.80;99.90;;;;;;5030493;28;20185;-82
2020/12/30 04:51:53;;;;;;;5.10;4.50;;;1.80;99.90;;;;;;5028144;28;20720;-82
2020/12/30 04:54:21;;;;;;;5.13;4.70;;;1.70;99.90;;;;;;5028181;28;20262;-82
2020/12/30 04:56:58;;;;;;;4.70;4.30;;;1.80;99.90;;;;;;5035836;28;20238;-83
2020/12/30 04:59:39;;;;;;;5.25;4.75;;;1.80;99.90;;;;;;5037862;28;20188;-82
2020/12/30 05:02:12;;;;;;;6.13;4.93;;;1.70;99.90;;;;;;5038699;28;20181;-81
2020/12/30 05:04:51;;;;;;;5.75;5.18;;;1.70;99.90;;;;;;5038468;28;20181;-80
2020/12/30 05:07:27;;;;;;;5.03;4.55;;;1.70;99.90;;;;;;5037909;28;20203;-80
2020/12/30 05:10:05;;;;;;;7.25;5.03;;;1.80;99.90;;;;;;5035244;28;20684;-83
2020/12/30 05:12:42;;;;;;;5.50;5.00;;;1.80;99.90;;;;;;5025697;28;20231;-83
2020/12/30 05:15:14;;;;;;;8.55;4.10;;;1.80;99.90;;;;;;5024614;28;20228;-82
2020/12/30 05:17:47;;;;;;;6.60;4.90;;;1.70;99.90;;;;;;5025111;28;20204;-82
2020/12/30 05:20:24;;;;;;;6.72;4.50;;;1.70;99.90;;;;;;5024867;28;20200;-83
2020/12/30 05:23:01;;;;;;;7.85;5.35;;;1.80;99.90;;;;;;5024534;28;20649;-82
2020/12/30 05:25:46;;;;;;;4.90;4.50;;;1.80;99.90;;;;;;5023343;28;20228;-82
2020/12/30 05:28:30;;;;;;;6.32;4.72;;;1.70;99.90;;;;;;5031130;28;20203;-84
2020/12/30 05:31:03;;;;;;;5.85;4.10;;;1.60;99.90;;;;;;5037750;28;20177;-84
2020/12/30 05:34:02;;;;;;;5.88;5.30;;;1.70;99.90;;;;;;5030021;28;20278;-84
2020/12/30 05:36:33;;;;;;;5.25;4.20;;;1.70;99.90;;;;;;5026549;28;20224;-84
2020/12/30 05:39:08;;;;;;;6.65;5.00;;;1.70;99.90;;;;;;5025894;28;20220;-84
2020/12/30 05:41:38;;;;;;;4.22;3.92;;;1.70;99.90;;;;;;5026739;28;20226;-84
2020/12/30 05:44:24;;;;;;;8.00;4.80;;;1.60;99.90;;;;;;5026473;28;20214;-84
2020/12/30 05:46:51;;;;;;;5.20;4.63;;;1.50;99.90;;;;;;5026881;28;20228;-84
2020/12/30 05:49:41;;;;;;;8.95;5.30;;;1.50;99.90;;;;;;5028321;28;20602;-83
2020/12/30 05:52:56;;;;;;;5.13;4.35;;;1.50;99.90;;;;;;5024618;28;20212;-83
2020/12/30 05:55:27;;;;;;;6.97;4.68;;;1.40;99.90;;;;;;5026183;28;20240;-83
2020/12/30 06:04:30;;;;;;;6.95;5.38;;;1.50;99.90;;;;;;5023717;28;20242;-83
2020/12/30 06:07:29;;;;;;;6.53;4.72;;;1.50;99.90;;;;;;5021230;28;20224;-83
2020/12/30 06:10:25;;;;;;;5.45;4.50;;;1.50;99.90;;;;;;5025306;28;20446;-84
2020/12/30 06:13:14;;;;;;;5.30;4.40;;;1.50;99.90;;;;;;5025155;28;20656;-83
2020/12/30 06:15:47;;;;;;;8.15;5.10;;;1.40;99.90;;;;;;5024801;28;20255;-83
2020/12/30 06:18:45;;;;;;;4.43;4.03;;;1.50;99.90;;;;;;5028588;28;20576;-83
2020/12/30 06:24:32;;;;;;;4.75;4.07;;;1.60;99.90;;;;;;5025536;28;20423;-83
2020/12/30 06:27:12;;;;;;;5.63;4.80;;;1.50;99.90;;;;;;5029226;28;20457;-83
2020/12/30 06:29:53;;;;;;;5.75;5.25;;;1.50;99.90;;;;;;5030369;28;20184;-83
2020/12/30 06:32:31;;;;;;;6.25;4.65;;;1.50;99.90;;;;;;5031026;28;20196;-83
2020/12/30 06:35:03;;;;;;;9.05;5.55;;;1.50;99.90;;;;;;5032681;28;20723;-83
2020/12/30 06:37:45;;;;;;;7.35;5.20;;;1.40;99.90;;;;;;5032222;28;20223;-83
2020/12/30 06:40:23;;;;;;;5.43;4.85;;;1.30;99.90;;;;;;5030293;28;20191;-83
2020/12/30 06:42:59;;;;;;;6.35;5.38;;;1.30;99.90;;;;;;5031042;28;20184;-83
2020/12/30 06:46:04;;;;;;;5.97;4.90;;;1.30;99.90;;;;;;5030936;28;20236;-82
2020/12/30 06:48:59;;;;;;;7.90;4.90;;;1.30;99.90;;;;;;5032412;28;20208;-83
2020/12/30 06:51:40;;;;;;;8.70;5.93;;;1.30;99.90;;;;;;5031029;28;20196;-82
2020/12/30 06:54:16;;;;;;;7.40;5.53;;;1.20;99.90;;;;;;5035500;28;20196;-81
2020/12/30 06:56:49;;;;;;;5.93;5.30;;;1.30;99.90;;;;;;5036048;28;20216;-81
2020/12/30 06:59:26;;;;;;;10.65;6.20;;;1.30;99.90;;;;;;5037627;28;20209;-83
2020/12/30 07:02:16;;;;;;;8.10;5.88;;;1.30;99.90;;;;;;5030208;28;20283;-83
2020/12/30 07:05:00;;;;;;;7.15;5.65;;;1.30;99.90;;;;;;5028860;28;20201;-82
2020/12/30 07:07:47;;;;;;;5.15;4.63;;;1.20;99.90;;;;;;5026584;28;20200;-82
2020/12/30 07:10:31;;;;;;;6.80;6.05;;;1.30;99.90;;;;;;5026931;28;20176;-83
2020/12/30 07:15:47;;;;;;;10.38;6.35;;;1.10;99.90;;;;;;5026840;28;20653;-83
2020/12/30 07:18:35;;;;;;;6.22;5.63;;;1.10;99.90;;;;;;5028678;28;20231;-84
2020/12/30 07:21:12;;;;;;;7.28;5.70;;;1.20;99.90;;;;;;5028485;28;20439;-83
2020/12/30 07:24:02;;;;;;;8.63;6.93;;;1.20;99.90;;;;;;5028300;28;20467;-85
2020/12/30 07:26:36;;;;;;;13.05;6.97;;;1.20;99.90;;;;;;5027873;28;20225;-81
2020/12/30 07:36:42;;;;;;;11.82;7.82;;;1.10;99.90;;;;;;4902247;29;20288;-83
2020/12/30 07:39:37;;;;;;;;;;;;;;;;;;;;;
2020/12/30 07:42:19;;;;;;;7.60;6.80;;;1.30;99.90;;;;;;4914305;29;20761;-82
2020/12/30 07:48:48;;;;;;;10.40;7.82;;;1.40;99.90;;;;;;4940970;28;20737;-83
2020/12/30 07:52:02;;;;;;;9.13;7.25;;;1.40;99.90;;;;;;5025846;28;20212;-83
2020/12/30 07:58:25;;;;;;;9.68;7.65;;;1.40;99.90;;;;;;4916508;29;20212;-82
2020/12/30 08:01:22;;;;;;;9.18;7.03;;;1.40;99.90;;;;;;4913006;29;20216;-83
2020/12/30 08:04:37;;;;;;;8.30;7.50;;;1.40;99.90;;;;;;4932746;29;20241;-83
2020/12/30 08:10:31;;;;;;;9.95;7.10;;;1.30;99.90;;;;;;4839083;29;20492;-82
2020/12/30 08:13:35;;;;;;;7.72;6.93;;;1.40;99.90;;;;;;4952026;29;20215;-83
2020/12/30 08:16:19;;;;;;;7.97;6.82;;;1.40;99.90;;;;;;4961459;28;20440;-82
2020/12/30 08:18:53;;;;;;;9.30;5.32;;;1.40;99.90;;;;;;5010507;28;20209;-82
2020/12/30 08:21:29;;;;;;;12.02;8.05;;;1.50;99.90;;;;;;5010103;28;20184;-83
2020/12/30 08:24:09;;;;;;;6.82;5.85;;;1.40;99.90;;;;;;5009772;28;20272;-82
2020/12/30 08:26:37;;;;;;;9.32;6.30;;;1.50;99.90;;;;;;5018209;23;20237;-83
2020/12/30 08:29:04;;;;;;;9.98;8.25;;;1.40;99.90;;;;;;4996743;28;20300;-82
2020/12/30 08:31:47;;;;;;;7.85;6.60;;;1.40;99.90;;;;;;4996821;28;20215;-82
2020/12/30 08:34:17;;;;;;;10.07;7.28;;;1.30;99.90;;;;;;4995776;28;20457;-82
2020/12/30 08:36:47;;;;;;;19.23;14.57;;;1.20;99.90;;;;;;4999001;28;20228;-82
2020/12/30 08:39:16;;;;;;;11.70;7.75;;;1.40;99.90;;;;;;4999886;28;20189;-82
2020/12/30 08:41:49;;;;;;;12.68;10.30;;;1.40;99.90;;;;;;4996843;28;20201;-82
2020/12/30 08:44:20;;;;;;;23.35;17.33;;;1.60;99.90;;;;;;4997353;28;20609;-82
2020/12/30 08:46:49;;;;;;;8.90;8.00;;;1.70;99.90;;;;;;5004231;28;20555;-82
2020/12/30 08:49:19;;;;;;;26.83;20.42;;;1.70;99.90;;;;;;5000201;28;20209;-82
2020/12/30 08:51:46;;;;;;;7.60;6.90;;;1.70;99.90;;;;;;4999411;28;20209;-81
2020/12/30 08:54:16;;;;;;;10.98;8.60;;;1.70;99.90;;;;;;4999633;28;20221;-81
2020/12/30 08:56:44;;;;;;;11.27;7.70;;;1.70;99.90;;;;;;4999003;28;20221;-81
2020/12/30 08:59:20;;;;;;;9.18;7.75;;;1.70;99.90;;;;;;4999516;28;20208;-81
2020/12/30 09:01:47;;;;;;;8.30;6.45;;;1.80;99.90;;;;;;4998678;28;20189;-81
2020/12/30 09:04:13;;;;;;;9.35;6.95;;;1.90;99.90;;;;;;4998381;28;20224;-81
2020/12/30 09:06:41;;;;;;;8.55;7.65;;;1.90;99.90;;;;;;4998764;28;20229;-81
2020/12/30 09:09:12;;;;;;;9.38;7.80;;;1.90;99.90;;;;;;4999619;28;20299;-82
2020/12/30 09:11:44;;;;;;;12.00;10.38;;;1.90;99.90;;;;;;4998369;28;20211;-82
2020/12/30 09:14:16;;;;;;;8.90;6.90;;;2.00;99.90;;;;;;4998052;28;20215;-82
2020/12/30 09:16:56;;;;;;;9.23;7.10;;;2.00;99.90;;;;;;4998207;28;20235;-82
2020/12/30 09:19:23;;;;;;;9.23;7.47;;;2.10;99.90;;;;;;4999072;28;20213;-82
2020/12/30 09:21:49;;;;;;;9.73;7.55;;;2.10;99.90;;;;;;4997498;28;20205;-82
2020/12/30 09:24:16;;;;;;;8.70;7.80;;;2.20;99.90;;;;;;4997327;28;20736;-82
2020/12/30 09:26:43;;;;;;;9.40;6.78;;;2.30;99.90;;;;;;4997731;28;20233;-82
2020/12/30 09:29:21;;;;;;;7.32;6.60;;;2.30;99.90;;;;;;4999343;28;20201;-81
2020/12/30 09:31:55;;;;;;;10.20;7.50;;;2.40;99.90;;;;;;4998440;28;20205;-82
2020/12/30 09:34:22;;;;;;;9.77;8.68;;;2.40;99.90;;;;;;4998828;28;20225;-82
2020/12/30 09:36:56;;;;;;;9.90;7.53;;;2.40;99.90;;;;;;4999497;28;20231;-82
2020/12/30 09:39:22;;;;;;;8.95;7.72;;;2.60;99.90;;;;;;4999112;28;20200;-83
2020/12/30 09:41:49;;;;;;;12.00;8.73;;;2.90;99.90;;;;;;4999387;28;20244;-82
2020/12/30 09:44:15;;;;;;;14.95;8.07;;;2.70;99.90;;;;;;4999269;28;20197;-82
2020/12/30 09:46:50;;;;;;;8.48;7.57;;;2.80;99.90;;;;;;5000047;28;20228;-82
2020/12/30 09:49:16;;;;;;;9.38;7.70;;;2.60;99.90;;;;;;5005272;28;20216;-82
2020/12/30 09:51:42;;;;;;;10.57;7.95;;;2.70;99.90;;;;;;5006347;28;20237;-83
2020/12/30 09:54:09;;;;;;;8.30;6.80;;;2.80;99.90;;;;;;5007227;28;20929;-82
2020/12/30 09:56:35;;;;;;;8.55;7.50;;;2.80;99.90;;;;;;5011218;28;20449;-82
2020/12/30 09:59:03;;;;;;;9.30;7.63;;;2.80;99.90;;;;;;5010358;28;20558;-82
2020/12/30 10:01:30;;;;;;;8.70;7.20;;;2.80;99.90;;;;;;5009529;28;20462;-81
2020/12/30 10:03:58;;;;;;;7.88;6.90;;;2.90;99.90;;;;;;5012174;28;20228;-81
2020/12/30 10:06:24;;;;;;;8.05;7.25;;;3.00;99.90;;;;;;5008267;28;20233;-81
2020/12/30 10:08:50;;;;;;;8.00;6.85;;;3.10;99.90;;;;;;5005770;28;20209;-81
2020/12/30 10:11:18;;;;;;;7.00;6.30;;;3.20;99.90;;;;;;5004705;28;20204;-82
2020/12/30 10:13:44;;;;;;;6.68;6.07;;;3.10;99.90;;;;;;5002494;28;20228;-82
2020/12/30 10:16:11;;;;;;;7.05;6.35;;;3.20;99.90;;;;;;5006224;28;20296;-83
2020/12/30 10:18:37;;;;;;;7.80;6.07;;;3.10;99.90;;;;;;5006046;28;20339;-83
2020/12/30 10:21:04;;;;;;;7.13;5.68;;;3.10;99.90;;;;;;5004823;28;20299;-82
2020/12/30 10:23:30;;;;;;;8.15;7.38;;;3.20;99.90;;;;;;5003411;28;20201;-82
2020/12/30 10:25:57;;;;;;;7.05;6.25;;;3.30;99.90;;;;;;5004228;28;20445;-82
2020/12/30 10:28:23;;;;;;;33.88;20.58;;;3.30;99.90;;;;;;5007379;28;20211;-82
2020/12/30 10:30:49;;;;;;;22.45;15.65;;;3.30;99.90;;;;;;5006907;28;20204;-82
2020/12/30 10:33:16;;;;;;;14.30;10.65;;;3.40;99.90;;;;;;5006535;28;20262;-82
2020/12/30 10:35:42;;;;;;;7.90;6.57;;;3.40;99.90;;;;;;5007796;28;20228;-83
2020/12/30 10:38:09;;;;;;;10.55;7.53;;;3.40;99.90;;;;;;5007107;28;20224;-82
2020/12/30 10:40:35;;;;;;;10.90;7.13;;;3.50;99.90;;;;;;5008614;28;20205;-82
2020/12/30 10:43:03;;;;;;;7.25;6.47;;;3.60;99.90;;;;;;5005016;28;20231;-83
2020/12/30 10:45:30;;;;;;;8.95;7.40;;;3.50;99.90;;;;;;5006074;28;20228;-81
2020/12/30 10:47:57;;;;;;;11.50;6.50;;;3.50;99.90;;;;;;5003496;28;20288;-82
2020/12/30 10:50:23;;;;;;;9.60;6.82;;;3.50;99.90;;;;;;5000754;28;20296;-82
2020/12/30 10:52:49;;;;;;;7.85;6.55;;;3.60;99.90;;;;;;4999449;28;20212;-82
2020/12/30 10:55:18;;;;;;;9.80;6.10;;;3.60;99.90;;;;;;5000389;28;20229;-82
2020/12/30 10:57:45;;;;;;;6.90;6.30;;;3.50;99.90;;;;;;4999568;28;20244;-83
2020/12/30 11:00:11;;;;;;;7.57;6.88;;;3.70;99.90;;;;;;4999607;28;20602;-83
2020/12/30 11:02:38;;;;;;;9.88;8.00;;;3.70;99.90;;;;;;4999348;28;20204;-83
2020/12/30 11:05:04;;;;;;;10.13;7.35;;;3.60;99.90;;;;;;4997528;28;20255;-82
2020/12/30 11:07:30;;;;;;;8.55;7.65;;;3.70;99.90;;;;;;4999168;28;20205;-82
2020/12/30 11:09:57;;;;;;;8.52;7.43;;;3.70;99.90;;;;;;4999563;28;20209;-82
2020/12/30 11:12:24;;;;;;;9.27;7.70;;;3.70;99.90;;;;;;4999732;28;20209;-82
2020/12/30 11:14:51;;;;;;;7.10;6.25;;;3.70;99.90;;;;;;4999073;28;20281;-82
2020/12/30 11:17:17;;;;;;;8.57;6.82;;;3.80;99.90;;;;;;5002020;28;20307;-82
2020/12/30 11:19:43;;;;;;;8.63;6.38;;;3.90;99.90;;;;;;5006001;28;20251;-83
2020/12/30 11:22:10;;;;;;;6.95;5.97;;;3.90;99.90;;;;;;5000568;28;20208;-83
2020/12/30 11:24:36;;;;;;;7.38;6.65;;;4.00;99.90;;;;;;5000876;28;20747;-83
2020/12/30 11:27:02;;;;;;;7.18;5.32;;;4.10;99.90;;;;;;5008686;28;20241;-82
2020/12/30 11:29:31;;;;;;;7.97;6.70;;;4.20;99.90;;;;;;5003217;28;20212;-83
2020/12/30 11:31:57;;;;;;;7.28;6.57;;;4.20;99.90;;;;;;5013569;28;20185;-83
2020/12/30 11:34:23;;;;;;;6.65;6.03;;;4.20;99.90;;;;;;5016977;28;20221;-85
2020/12/30 11:36:50;;;;;;;12.15;6.22;;;4.30;99.90;;;;;;5004849;28;20233;-85
2020/12/30 11:39:16;;;;;;;6.07;5.47;;;4.40;99.90;;;;;;5001472;28;20292;-81
2020/12/30 11:41:42;;;;;;;7.28;6.53;;;4.30;99.90;;;;;;5001697;28;20207;-82
2020/12/30 11:44:09;;;;;;;7.60;6.25;;;4.50;99.90;;;;;;5001074;28;20262;-81
2020/12/30 11:46:36;;;;;;;6.43;5.82;;;4.50;99.90;;;;;;5001797;28;20231;-80
2020/12/30 11:49:02;;;;;;;6.88;6.00;;;4.50;99.90;;;;;;4999645;28;20296;-80
2020/12/30 11:51:28;;;;;;;7.57;6.60;;;4.50;99.90;;;;;;5000265;28;20201;-81
2020/12/30 11:53:55;;;;;;;8.23;6.90;;;4.50;99.90;;;;;;4999436;28;20229;-81
2020/12/30 11:56:22;;;;;;;9.23;6.88;;;4.60;99.90;;;;;;4999550;28;20245;-81
2020/12/30 11:58:49;;;;;;;8.30;6.60;;;4.60;99.90;;;;;;4999960;28;20621;-81
2020/12/30 12:01:15;;;;;;;14.25;7.43;;;4.60;99.90;;;;;;4999010;28;20216;-81
2020/12/30 12:03:42;;;;;;;13.55;9.73;;;4.50;99.90;;;;;;5000321;28;20201;-81
2020/12/30 12:06:08;;;;;;;12.63;8.10;;;4.60;99.90;;;;;;5007441;28;20225;-81
2020/12/30 12:08:35;;;;;;;6.75;5.97;;;4.60;99.90;;;;;;5009561;28;20268;-80
2020/12/30 12:11:01;;;;;;;6.07;5.57;;;4.60;99.90;;;;;;5000370;28;20272;-80
2020/12/30 12:13:27;;;;;;;8.13;7.20;;;4.70;99.90;;;;;;4999400;28;20251;-82
2020/12/30 12:15:54;;;;;;;10.15;7.28;;;4.80;99.90;;;;;;4999046;28;20263;-80
2020/12/30 12:18:20;;;;;;;6.55;5.95;;;4.80;99.90;;;;;;4999527;28;20672;-81
2020/12/30 12:20:48;;;;;;;8.55;6.53;;;4.80;99.90;;;;;;4999692;28;20684;-81
2020/12/30 12:23:14;;;;;;;7.57;6.60;;;4.80;99.90;;;;;;4999723;28;20204;-81
2020/12/30 12:25:42;;;;;;;7.05;6.35;;;4.80;99.90;;;;;;4999727;28;20228;-81
2020/12/30 12:28:09;;;;;;;8.52;7.72;;;4.80;99.90;;;;;;5001581;28;20609;-80
2020/12/30 12:30:35;;;;;;;8.02;6.88;;;4.80;99.90;;;;;;4999414;28;20572;-81
2020/12/30 12:33:01;;;;;;;8.00;6.55;;;4.90;99.90;;;;;;4999773;28;20201;-82
2020/12/30 12:35:28;;;;;;;8.15;6.78;;;4.90;99.90;;;;;;5000099;28;20428;-82
2020/12/30 12:38:06;;;;;;;11.88;6.45;;;5.00;99.90;;;;;;5000047;28;20219;-81
2020/12/30 12:40:32;;;;;;;7.90;7.10;;;5.00;99.90;;;;;;5001800;28;20189;-81
2020/12/30 12:42:59;;;;;;;8.60;7.75;;;4.80;99.90;;;;;;5011074;28;20232;-81
2020/12/30 12:45:25;;;;;;;9.70;7.63;;;4.90;99.90;;;;;;5000265;28;20233;-81
2020/12/30 12:47:51;;;;;;;9.45;7.07;;;4.80;99.90;;;;;;4999228;28;20205;-80
2020/12/30 12:50:18;;;;;;;9.60;7.13;;;4.90;99.90;;;;;;5000407;28;20200;-80
2020/12/30 12:52:44;;;;;;;7.43;6.72;;;5.00;99.90;;;;;;4998532;28;20325;-81
2020/12/30 12:55:11;;;;;;;7.97;7.18;;;5.00;99.90;;;;;;4999401;28;20225;-81
2020/12/30 12:57:37;;;;;;;11.35;8.75;;;5.00;99.90;;;;;;4998898;28;20273;-81
2020/12/30 13:00:05;;;;;;;14.32;9.18;;;5.00;99.90;;;;;;4998514;28;20251;-80
2020/12/30 13:02:31;;;;;;;10.15;8.73;;;4.90;99.90;;;;;;4998854;28;20204;-80
2020/12/30 13:04:58;;;;;;;8.60;7.72;;;4.90;99.90;;;;;;4998792;28;20272;-80
2020/12/30 13:07:24;;;;;;;10.98;7.10;;;4.90;99.90;;;;;;4998850;28;20582;-80
2020/12/30 13:09:50;;;;;;;7.40;6.70;;;4.80;99.90;;;;;;4999547;28;20212;-83
2020/12/30 13:12:18;;;;;;;12.05;6.65;;;4.80;99.90;;;;;;5000336;28;20236;-81
2020/12/30 13:14:44;;;;;;;6.68;5.88;;;4.80;99.90;;;;;;4999856;28;20659;-81
2020/12/30 13:17:11;;;;;;;9.27;6.55;;;4.90;99.90;;;;;;4982269;28;20276;-81
2020/12/30 13:19:37;;;;;;;8.15;6.53;;;4.80;99.90;;;;;;4999875;28;20281;-82
2020/12/30 13:22:05;;;;;;;8.40;6.97;;;4.80;99.90;;;;;;5000340;28;20201;-82
2020/12/30 13:24:31;;;;;;;10.55;7.55;;;4.90;99.90;;;;;;5000614;28;20232;-81
2020/12/30 13:26:58;;;;;;;9.32;7.53;;;4.90;99.90;;;;;;4998790;28;20228;-81
2020/12/30 13:29:25;;;;;;;16.30;6.90;;;5.00;99.90;;;;;;5000331;28;20555;-81
2020/12/30 13:31:51;;;;;;;7.50;6.90;;;5.00;99.90;;;;;;5001716;28;20194;-82
2020/12/30 13:34:18;;;;;;;7.45;6.50;;;4.90;99.90;;;;;;5001996;28;20224;-82
2020/12/30 13:36:44;;;;;;;10.15;7.60;;;4.90;99.90;;;;;;5002818;28;20225;-82
2020/12/30 13:39:10;;;;;;;6.78;6.15;;;4.90;99.90;;;;;;5005865;28;20205;-82
2020/12/30 13:41:38;;;;;;;8.73;6.93;;;5.00;99.90;;;;;;5014255;28;20235;-82
2020/12/30 13:44:05;;;;;;;11.07;7.88;;;5.00;99.90;;;;;;5015276;28;20244;-82
2020/12/30 13:46:32;;;;;;;8.32;7.13;;;5.00;99.90;;;;;;5015714;28;20260;-81
2020/12/30 13:48:58;;;;;;;7.82;7.00;;;5.00;99.90;;;;;;5016461;28;20239;-82
2020/12/30 13:51:25;;;;;;;7.80;7.05;;;5.00;99.90;;;;;;5015442;28;20208;-81
2020/12/30 13:53:51;;;;;;;9.55;8.15;;;4.80;99.90;;;;;;5013071;28;20217;-82
2020/12/30 13:56:25;;;;;;;9.00;8.05;;;4.80;99.90;;;;;;5013010;28;20304;-83
2020/12/30 13:58:52;;;;;;;15.23;9.57;;;4.70;99.90;;;;;;5012459;28;20199;-84